New Champion — V7GG2 — position and weather

sailwx.info

Track history (hours):
 
Tides and Currents Weather Stations Pressure Air Temp Water Temp Dewpoint Dewpoint Depression Visibility Wind Speed Wind Dir Waves Ship Positions

New Champion

Last reported at 2017-Nov-19 00:46 UTC. Time now 2017-Nov-21 23:13 UTC.
Position N 33°46' W 118°16'.

Length 228 m; draft 11.4 m.

Type: Ship (hazmat cat A). MMSI: 537985031.

Date/timePositionNaut miles runAvg speedWind from/ knotsBaromVisibWave heightAir tempDewpointWater temp
2017-Nov-19 00:46N 33°46' W 118°16'0 0.0
2017-Nov-19 00:10N 33°46' W 118°16'1 0.4
2017-Nov-18 21:30N 33°45' W 118°16'2 4.6
2017-Nov-18 21:00N 33°43' W 118°15'2 0.1
2017-Nov-17 18:02N 33°42' W 118°13'0 0.0
2017-Nov-17 17:44N 33°42' W 118°13'0 0.0
2017-Nov-17 17:20N 33°42' W 118°13'0 0.0
2017-Nov-17 09:14N 33°42' W 118°13'0 0.0
2017-Nov-17 03:14N 33°42' W 118°13'0 0.0
2017-Nov-17 02:56N 33°42' W 118°13'0 0.0
2017-Nov-17 02:26N 33°42' W 118°13'0 0.0
2017-Nov-17 01:20N 33°42' W 118°13'0 0.0
2017-Nov-17 00:56N 33°42' W 118°13'0 0.0
2017-Nov-16 20:50N 33°42' W 118°13'0 0.0
2017-Nov-16 17:38N 33°42' W 118°13'0 0.0
2017-Nov-16 17:20N 33°42' W 118°13'0 0.1
2017-Nov-16 15:20N 33°42' W 118°13'0 0.0
2017-Nov-16 14:56N 33°42' W 118°13'0 0.0
2017-Nov-16 14:26N 33°42' W 118°13'0 0.1
2017-Nov-16 13:56N 33°42' W 118°13'0 1.0
2017-Nov-16 13:30N 33°41' W 118°13'3 5.1
2017-Nov-16 13:00N 33°39' W 118°13'3 6.7
2017-Nov-16 12:30N 33°36' W 118°15'5 9.6
2017-Nov-16 12:00N 33°36' W 118°21'510.1
2017-Nov-16 11:31N 33°39' W 118°26'510.0
2017-Nov-16 11:00N 33°41' W 118°31'510.2
2017-Nov-16 10:30N 33°44' W 118°37'3 6.8
2017-Nov-16 10:00N 33°47' W 118°36'3 6.1
2017-Nov-16 09:28N 33°49' W 118°33'4 9.5
2017-Nov-16 09:00N 33°52' W 118°30'3 0.1
2017-Nov-14 16:09N 33°55' W 118°27'0 2.0
2017-Nov-14 16:01N 33°54' W 118°27'1 2.4
2017-Nov-14 15:28N 33°54' W 118°29'0 0.6
2017-Nov-14 15:00N 33°53' W 118°29'0 0.4
2017-Nov-14 14:19N 33°53' W 118°29'0 0.0
2017-Nov-14 13:55N 33°53' W 118°29'0 0.0
2017-Nov-14 12:31N 33°53' W 118°29'0 0.1
2017-Nov-14 12:19N 33°53' W 118°29'0 0.0
2017-Nov-14 11:43N 33°53' W 118°29'0 0.1
2017-Nov-14 10:49N 33°53' W 118°29'0 0.1
2017-Nov-14 10:25N 33°53' W 118°29'0 0.0
2017-Nov-14 09:55N 33°53' W 118°29'1 2.4
2017-Nov-14 09:30N 33°53' W 118°30'3 6.8
2017-Nov-14 09:01N 33°51' W 118°33'510.1
2017-Nov-14 08:30N 33°48' W 118°39'4 7.7
2017-Nov-14 07:59N 33°47' W 118°43'5 9.8
2017-Nov-14 07:30N 33°49' W 118°48'5 9.8
2017-Nov-14 07:00N 33°51' W 118°53'510.1
2017-Nov-14 06:30N 33°54' W 118°58'5 9.9
2017-Nov-14 06:00N 33°56' W 119°03'5 9.8
2017-Nov-14 05:28N 33°59' W 119°09'5 9.9
2017-Nov-14 04:59N 34°01' W 119°14'610.0
2017-Nov-14 04:26N 34°03' W 119°20'4 9.9
2017-Nov-14 04:00N 34°05' W 119°25'510.2
2017-Nov-14 03:30N 34°06' W 119°31'510.0
2017-Nov-14 02:59N 34°07' W 119°37'5 9.9
2017-Nov-14 02:27N 34°09' W 119°43'4 9.8
2017-Nov-14 02:00N 34°10' W 119°48'510.2
2017-Nov-14 01:29N 34°11' W 119°54'510.1
2017-Nov-14 00:58N 34°13' W 120°01'510.0
2017-Nov-14 00:31N 34°14' W 120°06'510.1
2017-Nov-14 00:01N 34°15' W 120°12'510.0
2017-Nov-13 23:29N 34°17' W 120°18'510.0
2017-Nov-13 22:59N 34°18' W 120°24'5 9.8
2017-Nov-13 22:26N 34°19' W 120°30'410.2
2017-Nov-13 22:00N 34°20' W 120°35'  
Track history (hours):
 
Tides and Currents Weather Stations Pressure Air Temp Water Temp Dewpoint Dewpoint Depression Visibility Wind Speed Wind Dir Waves Ship Positions

New Champion

Last reported at 2017-Nov-19 00:46 UTC. Time now 2017-Nov-21 23:13 UTC.
Position N 33°46' W 118°16'.

Length 228 m; draft 11.4 m.

Type: Ship (hazmat cat A). MMSI: 537985031.

Date/timePositionNaut miles runAvg speedWind from/ knotsBaromVisibWave heightAir tempDewpointWater temp
2017-Nov-19 00:46N 33°46' W 118°16'0 0.0
2017-Nov-19 00:10N 33°46' W 118°16'1 0.4
2017-Nov-18 21:30N 33°45' W 118°16'2 4.6
2017-Nov-18 21:00N 33°43' W 118°15'2 0.1
2017-Nov-17 18:02N 33°42' W 118°13'0 0.0
2017-Nov-17 17:44N 33°42' W 118°13'0 0.0
2017-Nov-17 17:20N 33°42' W 118°13'0 0.0
2017-Nov-17 09:14N 33°42' W 118°13'0 0.0
2017-Nov-17 03:14N 33°42' W 118°13'0 0.0
2017-Nov-17 02:56N 33°42' W 118°13'0 0.0
2017-Nov-17 02:26N 33°42' W 118°13'0 0.0
2017-Nov-17 01:20N 33°42' W 118°13'0 0.0
2017-Nov-17 00:56N 33°42' W 118°13'0 0.0
2017-Nov-16 20:50N 33°42' W 118°13'0 0.0
2017-Nov-16 17:38N 33°42' W 118°13'0 0.0
2017-Nov-16 17:20N 33°42' W 118°13'0 0.1
2017-Nov-16 15:20N 33°42' W 118°13'0 0.0
2017-Nov-16 14:56N 33°42' W 118°13'0 0.0
2017-Nov-16 14:26N 33°42' W 118°13'0 0.1
2017-Nov-16 13:56N 33°42' W 118°13'0 1.0
2017-Nov-16 13:30N 33°41' W 118°13'3 5.1
2017-Nov-16 13:00N 33°39' W 118°13'3 6.7
2017-Nov-16 12:30N 33°36' W 118°15'5 9.6
2017-Nov-16 12:00N 33°36' W 118°21'510.1
2017-Nov-16 11:31N 33°39' W 118°26'510.0
2017-Nov-16 11:00N 33°41' W 118°31'510.2
2017-Nov-16 10:30N 33°44' W 118°37'3 6.8
2017-Nov-16 10:00N 33°47' W 118°36'3 6.1
2017-Nov-16 09:28N 33°49' W 118°33'4 9.5
2017-Nov-16 09:00N 33°52' W 118°30'3 0.1
2017-Nov-14 16:09N 33°55' W 118°27'0 2.0
2017-Nov-14 16:01N 33°54' W 118°27'1 2.4
2017-Nov-14 15:28N 33°54' W 118°29'0 0.6
2017-Nov-14 15:00N 33°53' W 118°29'0 0.4
2017-Nov-14 14:19N 33°53' W 118°29'0 0.0
2017-Nov-14 13:55N 33°53' W 118°29'0 0.0
2017-Nov-14 12:31N 33°53' W 118°29'0 0.1
2017-Nov-14 12:19N 33°53' W 118°29'0 0.0
2017-Nov-14 11:43N 33°53' W 118°29'0 0.1
2017-Nov-14 10:49N 33°53' W 118°29'0 0.1
2017-Nov-14 10:25N 33°53' W 118°29'0 0.0
2017-Nov-14 09:55N 33°53' W 118°29'1 2.4
2017-Nov-14 09:30N 33°53' W 118°30'3 6.8
2017-Nov-14 09:01N 33°51' W 118°33'510.1
2017-Nov-14 08:30N 33°48' W 118°39'4 7.7
2017-Nov-14 07:59N 33°47' W 118°43'5 9.8
2017-Nov-14 07:30N 33°49' W 118°48'5 9.8
2017-Nov-14 07:00N 33°51' W 118°53'510.1
2017-Nov-14 06:30N 33°54' W 118°58'5 9.9
2017-Nov-14 06:00N 33°56' W 119°03'5 9.8
2017-Nov-14 05:28N 33°59' W 119°09'5 9.9
2017-Nov-14 04:59N 34°01' W 119°14'610.0
2017-Nov-14 04:26N 34°03' W 119°20'4 9.9
2017-Nov-14 04:00N 34°05' W 119°25'510.2
2017-Nov-14 03:30N 34°06' W 119°31'510.0
2017-Nov-14 02:59N 34°07' W 119°37'5 9.9
2017-Nov-14 02:27N 34°09' W 119°43'4 9.8
2017-Nov-14 02:00N 34°10' W 119°48'510.2
2017-Nov-14 01:29N 34°11' W 119°54'510.1
2017-Nov-14 00:58N 34°13' W 120°01'510.0
2017-Nov-14 00:31N 34°14' W 120°06'510.1
2017-Nov-14 00:01N 34°15' W 120°12'510.0
2017-Nov-13 23:29N 34°17' W 120°18'510.0
2017-Nov-13 22:59N 34°18' W 120°24'5 9.8
2017-Nov-13 22:26N 34°19' W 120°30'410.2
2017-Nov-13 22:00N 34°20' W 120°35'  

Dump ship's entire track history